sensor_id;sensor_type;location;lat;lon;timestamp;P1;durP1;ratioP1;P2;durP2;ratioP2
72422;SDS011;71399;54.146;38.734;2024-02-26T00:00:58;4.65;;;2.35;;
72422;SDS011;71399;54.146;38.734;2024-02-26T00:03:24;6.20;;;2.53;;
72422;SDS011;71399;54.146;38.734;2024-02-26T00:05:51;6.70;;;2.90;;
72422;SDS011;71399;54.146;38.734;2024-02-26T00:08:17;5.97;;;2.17;;
72422;SDS011;71399;54.146;38.734;2024-02-26T00:10:43;5.13;;;2.33;;
72422;SDS011;71399;54.146;38.734;2024-02-26T00:13:09;8.65;;;3.00;;
72422;SDS011;71399;54.146;38.734;2024-02-26T00:15:35;6.03;;;2.60;;
72422;SDS011;71399;54.146;38.734;2024-02-26T00:18:02;5.25;;;2.17;;
72422;SDS011;71399;54.146;38.734;2024-02-26T00:20:28;10.82;;;2.97;;
72422;SDS011;71399;54.146;38.734;2024-02-26T00:22:55;9.45;;;2.75;;
72422;SDS011;71399;54.146;38.734;2024-02-26T00:25:21;4.10;;;2.40;;
72422;SDS011;71399;54.146;38.734;2024-02-26T00:27:47;7.07;;;2.30;;
72422;SDS011;71399;54.146;38.734;2024-02-26T00:30:13;6.25;;;2.40;;
72422;SDS011;71399;54.146;38.734;2024-02-26T00:32:40;5.78;;;2.70;;
72422;SDS011;71399;54.146;38.734;2024-02-26T00:35:06;6.00;;;2.13;;
72422;SDS011;71399;54.146;38.734;2024-02-26T00:37:33;8.20;;;2.78;;
72422;SDS011;71399;54.146;38.734;2024-02-26T00:39:59;6.15;;;2.20;;
72422;SDS011;71399;54.146;38.734;2024-02-26T00:42:25;5.75;;;2.30;;
72422;SDS011;71399;54.146;38.734;2024-02-26T00:44:52;4.40;;;2.35;;
72422;SDS011;71399;54.146;38.734;2024-02-26T00:47:18;6.43;;;2.20;;
72422;SDS011;71399;54.146;38.734;2024-02-26T00:49:44;5.65;;;2.50;;
72422;SDS011;71399;54.146;38.734;2024-02-26T00:52:11;8.82;;;2.83;;
72422;SDS011;71399;54.146;38.734;2024-02-26T00:54:37;5.50;;;2.10;;
72422;SDS011;71399;54.146;38.734;2024-02-26T00:57:05;7.30;;;2.50;;
72422;SDS011;71399;54.146;38.734;2024-02-26T00:59:31;8.68;;;2.90;;
72422;SDS011;71399;54.146;38.734;2024-02-26T01:01:57;7.85;;;2.40;;
72422;SDS011;71399;54.146;38.734;2024-02-26T01:04:25;4.20;;;2.03;;
72422;SDS011;71399;54.146;38.734;2024-02-26T01:06:51;6.07;;;2.10;;
72422;SDS011;71399;54.146;38.734;2024-02-26T01:09:18;5.07;;;2.30;;
72422;SDS011;71399;54.146;38.734;2024-02-26T01:11:44;8.23;;;2.25;;
72422;SDS011;71399;54.146;38.734;2024-02-26T01:14:10;3.92;;;1.67;;
72422;SDS011;71399;54.146;38.734;2024-02-26T01:16:37;3.75;;;2.00;;
72422;SDS011;71399;54.146;38.734;2024-02-26T01:19:03;6.35;;;2.38;;
72422;SDS011;71399;54.146;38.734;2024-02-26T01:21:29;6.38;;;2.65;;
72422;SDS011;71399;54.146;38.734;2024-02-26T01:23:55;4.80;;;2.50;;
72422;SDS011;71399;54.146;38.734;2024-02-26T01:26:22;12.90;;;2.50;;
72422;SDS011;71399;54.146;38.734;2024-02-26T01:28:48;5.65;;;2.15;;
72422;SDS011;71399;54.146;38.734;2024-02-26T01:31:14;6.68;;;2.42;;
72422;SDS011;71399;54.146;38.734;2024-02-26T01:33:41;6.35;;;2.75;;
72422;SDS011;71399;54.146;38.734;2024-02-26T01:36:07;5.22;;;2.47;;
72422;SDS011;71399;54.146;38.734;2024-02-26T01:38:33;8.52;;;2.72;;
72422;SDS011;71399;54.146;38.734;2024-02-26T01:40:59;7.15;;;2.60;;
72422;SDS011;71399;54.146;38.734;2024-02-26T01:43:26;6.03;;;2.10;;
72422;SDS011;71399;54.146;38.734;2024-02-26T01:45:52;5.00;;;2.30;;
72422;SDS011;71399;54.146;38.734;2024-02-26T01:48:20;10.20;;;2.53;;
72422;SDS011;71399;54.146;38.734;2024-02-26T01:50:46;4.65;;;2.45;;
72422;SDS011;71399;54.146;38.734;2024-02-26T01:53:13;6.43;;;2.38;;
72422;SDS011;71399;54.146;38.734;2024-02-26T01:55:40;7.28;;;2.97;;
72422;SDS011;71399;54.146;38.734;2024-02-26T01:58:06;6.55;;;2.22;;
72422;SDS011;71399;54.146;38.734;2024-02-26T02:00:33;7.55;;;3.20;;
72422;SDS011;71399;54.146;38.734;2024-02-26T02:03:00;8.52;;;2.38;;
72422;SDS011;71399;54.146;38.734;2024-02-26T02:05:28;6.65;;;2.53;;
72422;SDS011;71399;54.146;38.734;2024-02-26T02:07:56;3.72;;;1.88;;
72422;SDS011;71399;54.146;38.734;2024-02-26T02:10:22;6.00;;;2.00;;
72422;SDS011;71399;54.146;38.734;2024-02-26T02:12:51;7.75;;;2.40;;
72422;SDS011;71399;54.146;38.734;2024-02-26T02:15:17;4.55;;;2.20;;
72422;SDS011;71399;54.146;38.734;2024-02-26T02:17:44;12.82;;;2.67;;
72422;SDS011;71399;54.146;38.734;2024-02-26T02:20:17;7.13;;;3.05;;
72422;SDS011;71399;54.146;38.734;2024-02-26T02:22:47;6.18;;;2.13;;
72422;SDS011;71399;54.146;38.734;2024-02-26T02:25:13;6.03;;;2.80;;
72422;SDS011;71399;54.146;38.734;2024-02-26T02:27:40;4.45;;;2.30;;
72422;SDS011;71399;54.146;38.734;2024-02-26T02:30:08;7.95;;;3.22;;
72422;SDS011;71399;54.146;38.734;2024-02-26T02:32:36;6.05;;;2.25;;
72422;SDS011;71399;54.146;38.734;2024-02-26T02:35:05;5.70;;;2.45;;
72422;SDS011;71399;54.146;38.734;2024-02-26T02:37:32;12.52;;;3.38;;
72422;SDS011;71399;54.146;38.734;2024-02-26T02:39:58;5.13;;;2.40;;
72422;SDS011;71399;54.146;38.734;2024-02-26T02:42:24;7.50;;;2.80;;
72422;SDS011;71399;54.146;38.734;2024-02-26T02:44:51;7.30;;;2.70;;
72422;SDS011;71399;54.146;38.734;2024-02-26T02:47:17;6.15;;;2.65;;
72422;SDS011;71399;54.146;38.734;2024-02-26T02:49:43;6.47;;;2.67;;
72422;SDS011;71399;54.146;38.734;2024-02-26T02:52:10;7.22;;;2.55;;
72422;SDS011;71399;54.146;38.734;2024-02-26T02:54:36;11.40;;;2.70;;
72422;SDS011;71399;54.146;38.734;2024-02-26T02:57:06;3.65;;;1.98;;
72422;SDS011;71399;54.146;38.734;2024-02-26T02:59:32;8.38;;;3.10;;
72422;SDS011;71399;54.146;38.734;2024-02-26T03:01:58;4.95;;;2.30;;
72422;SDS011;71399;54.146;38.734;2024-02-26T03:04:25;6.90;;;2.40;;
72422;SDS011;71399;54.146;38.734;2024-02-26T03:06:51;11.10;;;2.92;;
72422;SDS011;71399;54.146;38.734;2024-02-26T03:09:17;6.82;;;2.40;;
72422;SDS011;71399;54.146;38.734;2024-02-26T03:11:44;7.70;;;2.22;;
72422;SDS011;71399;54.146;38.734;2024-02-26T03:14:10;8.00;;;2.40;;
72422;SDS011;71399;54.146;38.734;2024-02-26T03:16:36;9.10;;;2.85;;
72422;SDS011;71399;54.146;38.734;2024-02-26T03:19:02;6.95;;;2.35;;
72422;SDS011;71399;54.146;38.734;2024-02-26T03:21:28;5.68;;;2.80;;
72422;SDS011;71399;54.146;38.734;2024-02-26T03:23:55;12.20;;;3.03;;
72422;SDS011;71399;54.146;38.734;2024-02-26T03:26:21;6.90;;;2.90;;
72422;SDS011;71399;54.146;38.734;2024-02-26T03:28:48;6.53;;;2.70;;
72422;SDS011;71399;54.146;38.734;2024-02-26T03:31:14;8.13;;;3.20;;
72422;SDS011;71399;54.146;38.734;2024-02-26T03:33:40;12.07;;;2.85;;
72422;SDS011;71399;54.146;38.734;2024-02-26T03:36:07;4.55;;;2.20;;
72422;SDS011;71399;54.146;38.734;2024-02-26T03:38:33;7.70;;;2.55;;
72422;SDS011;71399;54.146;38.734;2024-02-26T03:40:59;6.97;;;2.42;;
72422;SDS011;71399;54.146;38.734;2024-02-26T03:43:26;11.95;;;2.55;;
72422;SDS011;71399;54.146;38.734;2024-02-26T03:45:52;7.20;;;2.47;;
72422;SDS011;71399;54.146;38.734;2024-02-26T03:48:18;6.00;;;2.55;;
72422;SDS011;71399;54.146;38.734;2024-02-26T03:50:45;7.72;;;2.33;;
72422;SDS011;71399;54.146;38.734;2024-02-26T03:53:11;5.15;;;2.97;;
72422;SDS011;71399;54.146;38.734;2024-02-26T03:55:38;6.90;;;2.28;;
72422;SDS011;71399;54.146;38.734;2024-02-26T03:58:04;5.88;;;3.22;;
72422;SDS011;71399;54.146;38.734;2024-02-26T04:00:31;9.70;;;2.58;;
72422;SDS011;71399;54.146;38.734;2024-02-26T04:02:57;6.95;;;3.00;;
72422;SDS011;71399;54.146;38.734;2024-02-26T04:05:23;7.38;;;2.45;;
72422;SDS011;71399;54.146;38.734;2024-02-26T04:07:49;8.20;;;2.45;;
72422;SDS011;71399;54.146;38.734;2024-02-26T04:10:16;10.30;;;2.80;;
72422;SDS011;71399;54.146;38.734;2024-02-26T04:12:44;6.25;;;2.40;;
72422;SDS011;71399;54.146;38.734;2024-02-26T04:15:11;5.65;;;2.58;;
72422;SDS011;71399;54.146;38.734;2024-02-26T04:17:38;7.55;;;2.88;;
72422;SDS011;71399;54.146;38.734;2024-02-26T04:20:06;11.57;;;3.35;;
72422;SDS011;71399;54.146;38.734;2024-02-26T04:22:32;7.28;;;2.70;;
72422;SDS011;71399;54.146;38.734;2024-02-26T04:24:59;6.65;;;2.55;;
72422;SDS011;71399;54.146;38.734;2024-02-26T04:27:25;5.15;;;2.28;;
72422;SDS011;71399;54.146;38.734;2024-02-26T04:29:51;8.80;;;3.17;;
72422;SDS011;71399;54.146;38.734;2024-02-26T04:32:18;8.00;;;2.97;;
72422;SDS011;71399;54.146;38.734;2024-02-26T04:34:44;7.43;;;2.80;;
72422;SDS011;71399;54.146;38.734;2024-02-26T04:37:11;9.20;;;3.60;;
72422;SDS011;71399;54.146;38.734;2024-02-26T04:39:37;6.82;;;3.13;;
72422;SDS011;71399;54.146;38.734;2024-02-26T04:42:03;6.32;;;2.95;;
72422;SDS011;71399;54.146;38.734;2024-02-26T04:44:29;4.68;;;2.55;;
72422;SDS011;71399;54.146;38.734;2024-02-26T04:46:56;9.88;;;3.08;;
72422;SDS011;71399;54.146;38.734;2024-02-26T04:49:22;10.15;;;2.90;;
72422;SDS011;71399;54.146;38.734;2024-02-26T04:51:49;8.25;;;3.05;;
72422;SDS011;71399;54.146;38.734;2024-02-26T04:54:15;9.18;;;3.40;;
72422;SDS011;71399;54.146;38.734;2024-02-26T04:56:43;14.02;;;3.65;;
72422;SDS011;71399;54.146;38.734;2024-02-26T04:59:09;10.40;;;3.58;;
72422;SDS011;71399;54.146;38.734;2024-02-26T05:01:36;8.82;;;2.80;;
72422;SDS011;71399;54.146;38.734;2024-02-26T05:04:02;6.38;;;2.80;;
72422;SDS011;71399;54.146;38.734;2024-02-26T05:06:29;9.15;;;3.40;;
72422;SDS011;71399;54.146;38.734;2024-02-26T05:08:55;11.57;;;2.95;;
72422;SDS011;71399;54.146;38.734;2024-02-26T05:11:21;6.50;;;3.15;;
72422;SDS011;71399;54.146;38.734;2024-02-26T05:13:48;5.90;;;3.28;;
72422;SDS011;71399;54.146;38.734;2024-02-26T05:16:14;9.57;;;3.10;;
72422;SDS011;71399;54.146;38.734;2024-02-26T05:18:40;11.05;;;3.45;;
72422;SDS011;71399;54.146;38.734;2024-02-26T05:21:07;9.38;;;3.70;;
72422;SDS011;71399;54.146;38.734;2024-02-26T05:23:33;7.07;;;3.55;;
72422;SDS011;71399;54.146;38.734;2024-02-26T05:25:59;10.98;;;3.55;;
72422;SDS011;71399;54.146;38.734;2024-02-26T05:28:26;9.48;;;3.25;;
72422;SDS011;71399;54.146;38.734;2024-02-26T05:30:52;11.40;;;3.20;;
72422;SDS011;71399;54.146;38.734;2024-02-26T05:33:18;7.53;;;2.97;;
72422;SDS011;71399;54.146;38.734;2024-02-26T05:35:44;9.93;;;3.60;;
72422;SDS011;71399;54.146;38.734;2024-02-26T05:38:11;7.32;;;2.90;;
72422;SDS011;71399;54.146;38.734;2024-02-26T05:40:37;8.90;;;3.22;;
72422;SDS011;71399;54.146;38.734;2024-02-26T05:43:04;10.23;;;3.65;;
72422;SDS011;71399;54.146;38.734;2024-02-26T05:45:30;10.70;;;3.53;;
72422;SDS011;71399;54.146;38.734;2024-02-26T05:47:56;9.77;;;3.35;;
72422;SDS011;71399;54.146;38.734;2024-02-26T05:50:23;8.05;;;3.10;;
72422;SDS011;71399;54.146;38.734;2024-02-26T05:52:49;9.48;;;3.15;;
72422;SDS011;71399;54.146;38.734;2024-02-26T05:55:15;7.40;;;3.35;;
72422;SDS011;71399;54.146;38.734;2024-02-26T05:57:41;6.35;;;3.20;;
72422;SDS011;71399;54.146;38.734;2024-02-26T06:00:08;13.00;;;3.63;;
72422;SDS011;71399;54.146;38.734;2024-02-26T06:02:38;7.28;;;3.38;;
72422;SDS011;71399;54.146;38.734;2024-02-26T06:05:05;8.45;;;3.25;;
72422;SDS011;71399;54.146;38.734;2024-02-26T06:07:33;8.05;;;2.92;;
72422;SDS011;71399;54.146;38.734;2024-02-26T06:09:59;10.57;;;3.03;;
72422;SDS011;71399;54.146;38.734;2024-02-26T06:12:25;8.85;;;3.58;;
72422;SDS011;71399;54.146;38.734;2024-02-26T06:14:54;10.80;;;3.92;;
72422;SDS011;71399;54.146;38.734;2024-02-26T06:17:20;8.70;;;3.53;;
72422;SDS011;71399;54.146;38.734;2024-02-26T06:19:46;10.20;;;4.60;;
72422;SDS011;71399;54.146;38.734;2024-02-26T06:22:12;9.60;;;3.80;;
72422;SDS011;71399;54.146;38.734;2024-02-26T06:24:39;9.02;;;4.38;;
72422;SDS011;71399;54.146;38.734;2024-02-26T06:27:05;11.90;;;4.18;;
72422;SDS011;71399;54.146;38.734;2024-02-26T06:29:31;9.82;;;3.78;;
72422;SDS011;71399;54.146;38.734;2024-02-26T06:31:58;10.90;;;4.28;;
72422;SDS011;71399;54.146;38.734;2024-02-26T06:34:24;14.57;;;4.30;;
72422;SDS011;71399;54.146;38.734;2024-02-26T06:36:50;14.90;;;4.15;;
72422;SDS011;71399;54.146;38.734;2024-02-26T06:39:16;12.05;;;3.97;;
72422;SDS011;71399;54.146;38.734;2024-02-26T06:41:43;14.25;;;4.15;;
72422;SDS011;71399;54.146;38.734;2024-02-26T06:44:10;15.05;;;4.35;;
72422;SDS011;71399;54.146;38.734;2024-02-26T06:46:37;10.95;;;4.60;;
72422;SDS011;71399;54.146;38.734;2024-02-26T06:49:03;10.93;;;4.20;;
72422;SDS011;71399;54.146;38.734;2024-02-26T06:51:29;14.98;;;4.18;;
72422;SDS011;71399;54.146;38.734;2024-02-26T06:53:55;13.18;;;4.05;;
72422;SDS011;71399;54.146;38.734;2024-02-26T06:56:22;13.82;;;4.55;;
72422;SDS011;71399;54.146;38.734;2024-02-26T06:58:48;10.63;;;4.47;;
72422;SDS011;71399;54.146;38.734;2024-02-26T07:01:14;12.65;;;4.45;;
72422;SDS011;71399;54.146;38.734;2024-02-26T07:03:40;11.18;;;4.38;;
72422;SDS011;71399;54.146;38.734;2024-02-26T07:06:07;15.88;;;4.53;;
72422;SDS011;71399;54.146;38.734;2024-02-26T07:08:34;18.98;;;4.55;;
72422;SDS011;71399;54.146;38.734;2024-02-26T07:11:00;11.50;;;4.28;;
72422;SDS011;71399;54.146;38.734;2024-02-26T07:13:27;9.48;;;4.18;;
72422;SDS011;71399;54.146;38.734;2024-02-26T07:15:53;12.55;;;4.38;;
72422;SDS011;71399;54.146;38.734;2024-02-26T07:18:20;11.70;;;4.10;;
72422;SDS011;71399;54.146;38.734;2024-02-26T07:20:46;11.48;;;4.28;;
72422;SDS011;71399;54.146;38.734;2024-02-26T07:23:13;11.82;;;4.68;;
72422;SDS011;71399;54.146;38.734;2024-02-26T07:25:39;16.20;;;5.00;;
72422;SDS011;71399;54.146;38.734;2024-02-26T07:28:06;12.57;;;4.18;;
72422;SDS011;71399;54.146;38.734;2024-02-26T07:30:32;11.38;;;3.42;;
72422;SDS011;71399;54.146;38.734;2024-02-26T07:32:59;12.65;;;4.70;;
72422;SDS011;71399;54.146;38.734;2024-02-26T07:35:25;14.77;;;4.38;;
72422;SDS011;71399;54.146;38.734;2024-02-26T07:37:53;11.15;;;4.38;;
72422;SDS011;71399;54.146;38.734;2024-02-26T07:40:19;13.43;;;4.15;;
72422;SDS011;71399;54.146;38.734;2024-02-26T07:42:45;12.27;;;3.97;;
72422;SDS011;71399;54.146;38.734;2024-02-26T07:45:11;12.75;;;4.57;;
72422;SDS011;71399;54.146;38.734;2024-02-26T07:47:38;13.35;;;3.90;;
72422;SDS011;71399;54.146;38.734;2024-02-26T07:50:07;7.90;;;4.28;;
72422;SDS011;71399;54.146;38.734;2024-02-26T07:52:34;10.65;;;4.15;;
72422;SDS011;71399;54.146;38.734;2024-02-26T07:55:01;11.27;;;3.95;;
72422;SDS011;71399;54.146;38.734;2024-02-26T07:57:27;9.07;;;4.00;;
72422;SDS011;71399;54.146;38.734;2024-02-26T07:59:53;14.20;;;3.97;;
72422;SDS011;71399;54.146;38.734;2024-02-26T08:02:20;12.80;;;4.45;;
72422;SDS011;71399;54.146;38.734;2024-02-26T08:04:47;9.38;;;4.05;;
72422;SDS011;71399;54.146;38.734;2024-02-26T08:07:14;12.82;;;4.05;;
72422;SDS011;71399;54.146;38.734;2024-02-26T08:09:40;11.25;;;4.03;;
72422;SDS011;71399;54.146;38.734;2024-02-26T08:12:06;12.07;;;4.32;;
72422;SDS011;71399;54.146;38.734;2024-02-26T08:14:33;10.30;;;3.88;;
72422;SDS011;71399;54.146;38.734;2024-02-26T08:16:59;11.15;;;4.20;;
72422;SDS011;71399;54.146;38.734;2024-02-26T08:19:26;10.68;;;4.55;;
72422;SDS011;71399;54.146;38.734;2024-02-26T08:21:52;10.60;;;4.65;;
72422;SDS011;71399;54.146;38.734;2024-02-26T08:24:18;14.35;;;4.60;;
72422;SDS011;71399;54.146;38.734;2024-02-26T08:26:45;9.52;;;4.20;;
72422;SDS011;71399;54.146;38.734;2024-02-26T08:29:11;12.75;;;4.70;;
72422;SDS011;71399;54.146;38.734;2024-02-26T08:31:38;10.93;;;4.10;;
72422;SDS011;71399;54.146;38.734;2024-02-26T08:34:05;12.05;;;4.70;;
72422;SDS011;71399;54.146;38.734;2024-02-26T08:36:33;12.48;;;4.43;;
72422;SDS011;71399;54.146;38.734;2024-02-26T08:38:59;12.90;;;4.82;;
72422;SDS011;71399;54.146;38.734;2024-02-26T08:41:26;11.60;;;4.25;;
72422;SDS011;71399;54.146;38.734;2024-02-26T08:43:52;11.93;;;3.83;;
72422;SDS011;71399;54.146;38.734;2024-02-26T08:46:18;12.80;;;4.35;;
72422;SDS011;71399;54.146;38.734;2024-02-26T08:48:44;12.68;;;4.60;;
72422;SDS011;71399;54.146;38.734;2024-02-26T08:51:10;12.35;;;3.55;;
72422;SDS011;71399;54.146;38.734;2024-02-26T08:53:37;12.88;;;4.63;;
72422;SDS011;71399;54.146;38.734;2024-02-26T08:56:03;11.45;;;3.92;;
72422;SDS011;71399;54.146;38.734;2024-02-26T08:58:30;11.02;;;4.10;;
72422;SDS011;71399;54.146;38.734;2024-02-26T09:00:57;13.38;;;3.78;;
72422;SDS011;71399;54.146;38.734;2024-02-26T09:03:23;9.02;;;3.90;;
72422;SDS011;71399;54.146;38.734;2024-02-26T09:05:49;10.23;;;4.10;;
72422;SDS011;71399;54.146;38.734;2024-02-26T09:08:15;11.32;;;4.78;;
72422;SDS011;71399;54.146;38.734;2024-02-26T09:10:42;12.68;;;3.92;;
72422;SDS011;71399;54.146;38.734;2024-02-26T09:13:08;8.57;;;3.80;;
72422;SDS011;71399;54.146;38.734;2024-02-26T09:15:34;13.35;;;4.38;;
72422;SDS011;71399;54.146;38.734;2024-02-26T09:18:01;12.43;;;4.88;;
72422;SDS011;71399;54.146;38.734;2024-02-26T09:20:28;12.60;;;4.00;;
72422;SDS011;71399;54.146;38.734;2024-02-26T09:22:55;11.88;;;4.10;;
72422;SDS011;71399;54.146;38.734;2024-02-26T09:25:21;15.68;;;4.38;;
72422;SDS011;71399;54.146;38.734;2024-02-26T09:27:47;12.90;;;3.92;;
72422;SDS011;71399;54.146;38.734;2024-02-26T09:30:14;10.88;;;4.32;;
72422;SDS011;71399;54.146;38.734;2024-02-26T09:32:40;7.05;;;3.97;;
72422;SDS011;71399;54.146;38.734;2024-02-26T09:35:07;12.05;;;4.15;;
72422;SDS011;71399;54.146;38.734;2024-02-26T09:37:33;9.30;;;4.35;;
72422;SDS011;71399;54.146;38.734;2024-02-26T09:40:03;10.73;;;4.07;;
72422;SDS011;71399;54.146;38.734;2024-02-26T09:42:30;8.10;;;2.90;;
72422;SDS011;71399;54.146;38.734;2024-02-26T09:44:59;9.85;;;3.70;;
72422;SDS011;71399;54.146;38.734;2024-02-26T09:47:31;13.20;;;3.90;;
72422;SDS011;71399;54.146;38.734;2024-02-26T09:49:59;8.65;;;3.85;;
72422;SDS011;71399;54.146;38.734;2024-02-26T09:52:29;17.33;;;4.63;;
72422;SDS011;71399;54.146;38.734;2024-02-26T09:54:59;11.27;;;3.55;;
72422;SDS011;71399;54.146;38.734;2024-02-26T09:57:25;7.57;;;4.15;;
72422;SDS011;71399;54.146;38.734;2024-02-26T09:59:53;11.82;;;3.83;;
72422;SDS011;71399;54.146;38.734;2024-02-26T10:02:24;10.18;;;4.50;;
72422;SDS011;71399;54.146;38.734;2024-02-26T10:04:51;11.90;;;4.30;;
72422;SDS011;71399;54.146;38.734;2024-02-26T10:07:19;14.15;;;4.57;;
72422;SDS011;71399;54.146;38.734;2024-02-26T10:09:46;15.70;;;4.00;;
72422;SDS011;71399;54.146;38.734;2024-02-26T10:12:12;10.63;;;4.30;;
72422;SDS011;71399;54.146;38.734;2024-02-26T10:14:38;12.15;;;4.20;;
72422;SDS011;71399;54.146;38.734;2024-02-26T10:17:06;11.98;;;4.22;;
72422;SDS011;71399;54.146;38.734;2024-02-26T10:19:36;17.17;;;4.15;;
72422;SDS011;71399;54.146;38.734;2024-02-26T10:22:02;7.15;;;3.30;;
72422;SDS011;71399;54.146;38.734;2024-02-26T10:24:30;8.73;;;3.47;;
72422;SDS011;71399;54.146;38.734;2024-02-26T10:26:56;12.80;;;4.40;;
72422;SDS011;71399;54.146;38.734;2024-02-26T10:29:26;11.75;;;4.47;;
72422;SDS011;71399;54.146;38.734;2024-02-26T10:31:53;8.43;;;3.67;;
72422;SDS011;71399;54.146;38.734;2024-02-26T10:34:20;8.35;;;3.95;;
72422;SDS011;71399;54.146;38.734;2024-02-26T10:36:48;9.23;;;3.53;;
72422;SDS011;71399;54.146;38.734;2024-02-26T10:39:15;11.00;;;3.60;;
72422;SDS011;71399;54.146;38.734;2024-02-26T10:41:42;9.20;;;3.80;;
72422;SDS011;71399;54.146;38.734;2024-02-26T10:44:10;7.32;;;3.35;;
72422;SDS011;71399;54.146;38.734;2024-02-26T10:46:38;8.50;;;4.47;;
72422;SDS011;71399;54.146;38.734;2024-02-26T10:49:12;10.35;;;3.55;;
72422;SDS011;71399;54.146;38.734;2024-02-26T10:51:45;10.82;;;3.60;;
72422;SDS011;71399;54.146;38.734;2024-02-26T10:54:21;9.70;;;3.90;;
72422;SDS011;71399;54.146;38.734;2024-02-26T10:56:51;6.93;;;3.28;;
72422;SDS011;71399;54.146;38.734;2024-02-26T10:59:19;7.38;;;3.35;;
72422;SDS011;71399;54.146;38.734;2024-02-26T11:01:47;10.95;;;3.80;;
72422;SDS011;71399;54.146;38.734;2024-02-26T11:04:15;13.80;;;3.72;;
72422;SDS011;71399;54.146;38.734;2024-02-26T11:06:44;9.90;;;3.60;;
72422;SDS011;71399;54.146;38.734;2024-02-26T11:09:12;9.98;;;3.75;;
72422;SDS011;71399;54.146;38.734;2024-02-26T11:11:38;7.95;;;3.55;;
72422;SDS011;71399;54.146;38.734;2024-02-26T11:14:06;9.65;;;3.15;;
72422;SDS011;71399;54.146;38.734;2024-02-26T11:16:35;11.35;;;3.15;;
72422;SDS011;71399;54.146;38.734;2024-02-26T11:19:03;10.50;;;3.35;;
72422;SDS011;71399;54.146;38.734;2024-02-26T11:21:35;8.60;;;3.50;;
72422;SDS011;71399;54.146;38.734;2024-02-26T11:24:06;10.82;;;3.50;;
72422;SDS011;71399;54.146;38.734;2024-02-26T11:26:36;11.70;;;3.65;;
72422;SDS011;71399;54.146;38.734;2024-02-26T11:29:08;12.68;;;3.97;;
72422;SDS011;71399;54.146;38.734;2024-02-26T11:31:36;11.23;;;3.45;;
72422;SDS011;71399;54.146;38.734;2024-02-26T11:34:04;11.45;;;3.30;;
72422;SDS011;71399;54.146;38.734;2024-02-26T11:36:32;8.18;;;3.10;;
72422;SDS011;71399;54.146;38.734;2024-02-26T11:38:59;12.05;;;3.17;;
72422;SDS011;71399;54.146;38.734;2024-02-26T11:41:25;10.77;;;3.17;;
72422;SDS011;71399;54.146;38.734;2024-02-26T11:43:57;12.50;;;3.05;;
72422;SDS011;71399;54.146;38.734;2024-02-26T11:46:30;8.23;;;2.78;;
72422;SDS011;71399;54.146;38.734;2024-02-26T11:48:58;14.57;;;3.45;;
72422;SDS011;71399;54.146;38.734;2024-02-26T11:51:50;6.57;;;3.03;;
72422;SDS011;71399;54.146;38.734;2024-02-26T11:57:24;6.82;;;2.92;;
72422;SDS011;71399;54.146;38.734;2024-02-26T12:00:12;6.95;;;3.05;;
72422;SDS011;71399;54.146;38.734;2024-02-26T12:05:14;10.00;;;3.10;;
72422;SDS011;71399;54.146;38.734;2024-02-26T12:07:46;12.47;;;3.37;;
72422;SDS011;71399;54.146;38.734;2024-02-26T12:10:24;8.98;;;3.40;;
72422;SDS011;71399;54.146;38.734;2024-02-26T12:13:05;12.90;;;3.90;;
72422;SDS011;71399;54.146;38.734;2024-02-26T12:15:43;8.98;;;3.00;;
72422;SDS011;71399;54.146;38.734;2024-02-26T12:18:17;9.57;;;3.92;;
72422;SDS011;71399;54.146;38.734;2024-02-26T12:20:44;9.55;;;3.60;;
72422;SDS011;71399;54.146;38.734;2024-02-26T12:23:15;11.45;;;3.92;;
72422;SDS011;71399;54.146;38.734;2024-02-26T12:25:45;7.43;;;3.60;;
72422;SDS011;71399;54.146;38.734;2024-02-26T12:28:14;9.45;;;4.03;;
72422;SDS011;71399;54.146;38.734;2024-02-26T12:30:40;12.38;;;3.80;;
72422;SDS011;71399;54.146;38.734;2024-02-26T12:33:06;8.93;;;3.63;;
72422;SDS011;71399;54.146;38.734;2024-02-26T12:35:34;11.40;;;3.65;;
72422;SDS011;71399;54.146;38.734;2024-02-26T12:38:01;11.63;;;3.40;;
72422;SDS011;71399;54.146;38.734;2024-02-26T12:40:30;15.88;;;4.38;;
72422;SDS011;71399;54.146;38.734;2024-02-26T12:42:57;13.20;;;4.00;;
72422;SDS011;71399;54.146;38.734;2024-02-26T12:45:25;9.05;;;3.50;;
72422;SDS011;71399;54.146;38.734;2024-02-26T12:47:52;9.70;;;3.60;;
72422;SDS011;71399;54.146;38.734;2024-02-26T12:50:18;7.00;;;3.45;;
72422;SDS011;71399;54.146;38.734;2024-02-26T12:52:45;19.60;;;3.90;;
72422;SDS011;71399;54.146;38.734;2024-02-26T12:55:13;9.52;;;3.50;;
72422;SDS011;71399;54.146;38.734;2024-02-26T12:57:41;9.40;;;3.28;;
72422;SDS011;71399;54.146;38.734;2024-02-26T13:00:10;8.77;;;3.92;;
72422;SDS011;71399;54.146;38.734;2024-02-26T13:02:40;10.55;;;3.70;;
72422;SDS011;71399;54.146;38.734;2024-02-26T13:05:10;9.00;;;4.00;;
72422;SDS011;71399;54.146;38.734;2024-02-26T13:07:44;18.05;;;4.20;;
72422;SDS011;71399;54.146;38.734;2024-02-26T13:10:15;14.45;;;3.40;;
72422;SDS011;71399;54.146;38.734;2024-02-26T13:12:48;9.07;;;2.88;;
72422;SDS011;71399;54.146;38.734;2024-02-26T13:15:19;9.90;;;3.60;;
72422;SDS011;71399;54.146;38.734;2024-02-26T13:17:47;9.98;;;3.47;;
72422;SDS011;71399;54.146;38.734;2024-02-26T13:20:28;8.05;;;3.17;;
72422;SDS011;71399;54.146;38.734;2024-02-26T13:23:05;11.45;;;2.67;;
72422;SDS011;71399;54.146;38.734;2024-02-26T13:25:33;8.60;;;3.50;;
72422;SDS011;71399;54.146;38.734;2024-02-26T13:28:05;11.35;;;3.08;;
72422;SDS011;71399;54.146;38.734;2024-02-26T13:30:33;9.48;;;3.70;;
72422;SDS011;71399;54.146;38.734;2024-02-26T13:33:12;8.18;;;3.33;;
72422;SDS011;71399;54.146;38.734;2024-02-26T13:35:39;8.65;;;3.30;;
72422;SDS011;71399;54.146;38.734;2024-02-26T13:38:05;8.57;;;3.80;;
72422;SDS011;71399;54.146;38.734;2024-02-26T13:40:32;10.70;;;3.67;;
72422;SDS011;71399;54.146;38.734;2024-02-26T13:42:59;9.05;;;3.08;;
72422;SDS011;71399;54.146;38.734;2024-02-26T13:45:26;7.72;;;3.15;;
72422;SDS011;71399;54.146;38.734;2024-02-26T13:48:05;7.85;;;3.33;;
72422;SDS011;71399;54.146;38.734;2024-02-26T13:50:32;6.07;;;3.22;;
72422;SDS011;71399;54.146;38.734;2024-02-26T13:52:58;8.95;;;3.38;;
72422;SDS011;71399;54.146;38.734;2024-02-26T13:55:25;9.40;;;2.88;;
72422;SDS011;71399;54.146;38.734;2024-02-26T13:57:54;13.20;;;3.47;;
72422;SDS011;71399;54.146;38.734;2024-02-26T14:00:21;8.82;;;3.15;;
72422;SDS011;71399;54.146;38.734;2024-02-26T14:02:47;10.93;;;3.63;;
72422;SDS011;71399;54.146;38.734;2024-02-26T14:05:13;10.43;;;3.22;;
72422;SDS011;71399;54.146;38.734;2024-02-26T14:07:42;6.43;;;3.03;;
72422;SDS011;71399;54.146;38.734;2024-02-26T14:10:08;10.90;;;3.33;;
72422;SDS011;71399;54.146;38.734;2024-02-26T14:12:37;8.38;;;3.20;;
72422;SDS011;71399;54.146;38.734;2024-02-26T14:15:07;7.63;;;3.17;;
72422;SDS011;71399;54.146;38.734;2024-02-26T14:17:35;13.15;;;3.58;;
72422;SDS011;71399;54.146;38.734;2024-02-26T14:20:02;9.48;;;3.05;;
72422;SDS011;71399;54.146;38.734;2024-02-26T14:22:30;11.73;;;3.65;;
72422;SDS011;71399;54.146;38.734;2024-02-26T14:24:57;6.75;;;2.47;;
72422;SDS011;71399;54.146;38.734;2024-02-26T14:27:23;10.85;;;3.55;;
72422;SDS011;71399;54.146;38.734;2024-02-26T14:29:50;8.30;;;2.75;;
72422;SDS011;71399;54.146;38.734;2024-02-26T14:32:16;9.73;;;3.53;;
72422;SDS011;71399;54.146;38.734;2024-02-26T14:34:43;8.30;;;2.92;;